createdAt,value
2023-04-15T00:01:34.636Z,0.70
2023-04-15T00:04:37.564Z,1.20
2023-04-15T00:07:40.446Z,1.05
2023-04-15T00:10:44.269Z,1.10
2023-04-15T00:13:46.313Z,1.52
2023-04-15T00:16:50.121Z,0.90
2023-04-15T00:19:51.746Z,0.85
2023-04-15T00:22:53.660Z,1.17
2023-04-15T00:25:55.728Z,1.58
2023-04-15T00:28:57.357Z,1.27
2023-04-15T00:31:58.885Z,1.67
2023-04-15T00:35:00.459Z,2.10
2023-04-15T00:38:02.065Z,1.70
2023-04-15T00:41:04.295Z,2.03
2023-04-15T00:44:09.359Z,1.98
2023-04-15T00:47:12.136Z,2.97
2023-04-15T00:50:14.219Z,3.65
2023-04-15T00:53:15.946Z,3.42
2023-04-15T00:56:18.289Z,3.85
2023-04-15T00:59:20.613Z,4.07
2023-04-15T01:02:22.951Z,3.40
2023-04-15T01:05:25.108Z,4.35
2023-04-15T01:08:28.665Z,3.22
2023-04-15T01:11:33.582Z,3.83
2023-04-15T01:14:35.233Z,3.63
2023-04-15T01:17:37.366Z,4.35
2023-04-15T01:20:39.738Z,3.95
2023-04-15T01:23:41.578Z,3.90
2023-04-15T01:26:44.541Z,3.40
2023-04-15T01:29:46.437Z,4.13
2023-04-15T01:32:48.024Z,4.18
2023-04-15T01:35:50.125Z,3.60
2023-04-15T01:38:52.026Z,3.60
2023-04-15T01:41:53.865Z,4.15
2023-04-15T01:44:55.822Z,3.80
2023-04-15T01:47:57.446Z,3.35
2023-04-15T01:50:59.284Z,4.20
2023-04-15T01:54:00.874Z,3.40
2023-04-15T01:57:02.475Z,3.58
2023-04-15T02:00:04.510Z,3.17
2023-04-15T02:03:06.723Z,3.67
2023-04-15T02:06:08.321Z,3.33
2023-04-15T02:09:10.592Z,3.03
2023-04-15T02:12:12.869Z,3.53
2023-04-15T02:15:14.424Z,3.70
2023-04-15T02:18:17.014Z,3.92
2023-04-15T02:21:19.032Z,3.88
2023-04-15T02:24:21.222Z,3.85
2023-04-15T02:27:22.885Z,3.97
2023-04-15T02:30:25.588Z,3.97
2023-04-15T02:33:27.205Z,4.43
2023-04-15T02:36:29.853Z,4.07
2023-04-15T02:39:31.414Z,3.53
2023-04-15T02:42:33.056Z,3.67
2023-04-15T02:45:34.819Z,4.05
2023-04-15T02:48:36.942Z,4.18
2023-04-15T02:51:38.931Z,3.92
2023-04-15T02:54:40.524Z,3.10
2023-04-15T02:57:42.160Z,4.13
2023-04-15T03:00:43.724Z,3.53
2023-04-15T03:03:45.600Z,3.35
2023-04-15T03:06:47.565Z,3.40
2023-04-15T03:09:49.135Z,3.95
2023-04-15T03:12:50.897Z,3.30
2023-04-15T03:15:52.585Z,3.97
2023-04-15T03:18:54.139Z,3.72
2023-04-15T03:21:55.938Z,4.38
2023-04-15T03:24:57.829Z,4.25
2023-04-15T03:28:00.235Z,3.80
2023-04-15T03:31:01.838Z,4.90
2023-04-15T03:34:03.446Z,4.20
2023-04-15T03:37:05.685Z,3.90
2023-04-15T03:40:08.039Z,4.28
2023-04-15T03:43:09.779Z,3.72
2023-04-15T03:46:11.372Z,7.15
2023-04-15T03:49:14.377Z,4.75
2023-04-15T03:52:16.008Z,4.60
2023-04-15T03:55:17.701Z,4.05
2023-04-15T03:58:19.226Z,3.65
2023-04-15T04:01:20.813Z,3.80
2023-04-15T04:04:22.523Z,3.60
2023-04-15T04:07:25.028Z,3.83
2023-04-15T04:10:27.108Z,3.30
2023-04-15T04:13:28.681Z,3.83
2023-04-15T04:16:30.581Z,3.80
2023-04-15T04:19:32.282Z,4.13
2023-04-15T04:22:39.301Z,4.45
2023-04-15T04:25:41.524Z,3.97
2023-04-15T04:28:43.077Z,3.83
2023-04-15T04:31:44.761Z,4.45
2023-04-15T04:34:46.422Z,4.57
2023-04-15T04:37:48.098Z,5.55
2023-04-15T04:40:49.746Z,6.07
2023-04-15T04:43:51.405Z,5.55
2023-04-15T04:46:53.044Z,6.05
2023-04-15T04:49:54.672Z,5.15
2023-04-15T04:52:56.463Z,5.45
2023-04-15T04:55:58.362Z,4.68
2023-04-15T04:59:00.219Z,7.57
2023-04-15T05:02:02.116Z,5.90
2023-04-15T05:05:03.900Z,7.53
2023-04-15T05:08:05.856Z,7.72
2023-04-15T05:11:07.437Z,6.80
2023-04-15T05:14:08.995Z,7.22
2023-04-15T05:17:11.555Z,10.00
2023-04-15T05:20:13.761Z,9.27
2023-04-15T05:23:15.505Z,7.03
2023-04-15T05:26:17.762Z,5.53
2023-04-15T05:29:19.342Z,6.05
2023-04-15T05:32:20.971Z,6.15
2023-04-15T05:35:23.048Z,4.68
2023-04-15T05:38:24.617Z,3.42
2023-04-15T05:41:26.404Z,3.50
2023-04-15T05:44:27.978Z,3.15
2023-04-15T05:47:29.665Z,2.70
2023-04-15T05:50:31.364Z,2.55
2023-04-15T05:53:32.975Z,3.17
2023-04-15T05:56:34.580Z,2.50
2023-04-15T05:59:36.160Z,2.28
2023-04-15T06:02:39.137Z,2.58
2023-04-15T06:05:40.809Z,2.75
2023-04-15T06:08:42.582Z,2.85
2023-04-15T06:11:44.147Z,2.38
2023-04-15T06:14:45.707Z,3.15
2023-04-15T06:17:47.479Z,2.53
2023-04-15T06:20:49.318Z,2.50
2023-04-15T06:23:51.024Z,2.53
2023-04-15T06:26:52.631Z,1.95
2023-04-15T06:29:54.252Z,2.17
2023-04-15T06:32:56.249Z,2.50
2023-04-15T06:35:57.881Z,1.73
2023-04-15T06:38:59.766Z,1.75
2023-04-15T06:42:01.691Z,1.92
2023-04-15T06:45:03.438Z,2.15
2023-04-15T06:48:05.452Z,2.25
2023-04-15T06:51:07.108Z,3.13
2023-04-15T06:54:08.713Z,2.50
2023-04-15T06:57:10.563Z,2.92
2023-04-15T07:00:12.615Z,4.75
2023-04-15T07:03:15.161Z,4.70
2023-04-15T07:06:17.077Z,5.97
2023-04-15T07:09:18.630Z,6.53
2023-04-15T07:12:20.913Z,6.60
2023-04-15T07:15:23.595Z,4.80
2023-04-15T07:18:25.621Z,4.55
2023-04-15T07:21:27.740Z,5.53
2023-04-15T07:24:30.145Z,4.10
2023-04-15T07:27:31.754Z,3.28
2023-04-15T07:30:33.323Z,4.45
2023-04-15T07:33:34.878Z,4.20
2023-04-15T07:36:36.974Z,4.40
2023-04-15T07:39:38.551Z,3.42
2023-04-15T07:42:41.462Z,4.40
2023-04-15T07:45:43.326Z,3.13
2023-04-15T07:48:45.099Z,2.60
2023-04-15T07:51:46.785Z,3.00
2023-04-15T07:54:48.329Z,3.90
2023-04-15T07:57:51.098Z,3.45
2023-04-15T08:00:52.904Z,4.38
2023-04-15T08:03:55.457Z,4.03
2023-04-15T08:06:58.060Z,3.55
2023-04-15T08:09:59.661Z,3.90
2023-04-15T08:13:01.344Z,4.57
2023-04-15T08:16:21.041Z,5.00
2023-04-15T08:19:23.046Z,3.95
2023-04-15T08:22:24.611Z,1.90
2023-04-15T08:25:26.585Z,0.85
2023-04-15T08:28:28.204Z,0.68
2023-04-15T08:31:30.798Z,0.50
2023-04-15T08:34:32.541Z,0.70
2023-04-15T08:37:34.072Z,0.55
2023-04-15T08:40:41.947Z,0.82
2023-04-15T08:43:51.828Z,0.43
2023-04-15T08:46:57.163Z,0.20
2023-04-15T08:49:59.355Z,0.25
2023-04-15T08:53:01.288Z,0.30
2023-04-15T08:56:07.718Z,0.17
2023-04-15T08:59:09.913Z,0.22
2023-04-15T09:02:12.204Z,0.32
2023-04-15T09:05:13.956Z,0.75
2023-04-15T09:08:15.774Z,0.68
2023-04-15T09:11:20.026Z,0.63
2023-04-15T09:14:21.923Z,0.45
2023-04-15T09:17:24.755Z,0.50
2023-04-15T09:20:26.846Z,0.57
2023-04-15T09:23:28.406Z,0.30
2023-04-15T09:26:34.115Z,0.43
2023-04-15T09:29:37.062Z,0.52
2023-04-15T09:32:51.909Z,0.32
2023-04-15T09:36:02.210Z,0.30
2023-04-15T09:39:03.963Z,0.73
2023-04-15T09:42:07.240Z,0.22
2023-04-15T09:45:12.182Z,0.40
2023-04-15T09:48:26.919Z,0.35
2023-04-15T09:51:38.027Z,0.32
2023-04-15T09:54:39.637Z,0.50
2023-04-15T09:57:41.891Z,0.68
2023-04-15T10:00:44.005Z,0.73
2023-04-15T10:03:46.351Z,0.60
2023-04-15T10:06:48.312Z,0.47
2023-04-15T10:09:50.085Z,0.75
2023-04-15T10:12:52.628Z,0.68
2023-04-15T10:16:21.299Z,0.70
2023-04-15T10:19:27.706Z,0.52
2023-04-15T10:22:30.156Z,0.90
2023-04-15T10:25:33.743Z,1.30
2023-04-15T10:28:35.333Z,0.60
2023-04-15T10:31:38.423Z,0.73
2023-04-15T10:34:41.020Z,0.35
2023-04-15T10:37:42.611Z,1.30
2023-04-15T10:40:46.275Z,1.13
2023-04-15T10:43:59.838Z,0.57
2023-04-15T10:47:01.768Z,0.82
2023-04-15T10:50:03.651Z,0.93
2023-04-15T10:53:05.698Z,0.70
2023-04-15T10:56:07.628Z,0.88
2023-04-15T10:59:10.057Z,1.13
2023-04-15T11:02:14.366Z,1.27
2023-04-15T11:05:17.093Z,0.65
2023-04-15T11:08:19.379Z,0.63
2023-04-15T11:11:21.226Z,1.23
2023-04-15T11:14:22.964Z,0.90
2023-04-15T11:17:31.137Z,1.65
2023-04-15T11:20:32.958Z,1.08
2023-04-15T11:23:40.022Z,0.75
2023-04-15T11:26:41.635Z,0.95
2023-04-15T11:29:44.278Z,0.85
2023-04-15T11:32:45.914Z,1.05
2023-04-15T11:35:47.635Z,0.82
2023-04-15T11:38:49.287Z,1.10
2023-04-15T11:41:50.987Z,1.40
2023-04-15T11:45:07.493Z,1.13
2023-04-15T11:48:11.164Z,0.82
2023-04-15T11:51:14.008Z,0.63
2023-04-15T11:54:19.617Z,1.15
2023-04-15T11:57:21.478Z,0.30
2023-04-15T12:00:23.162Z,0.57
2023-04-15T12:03:32.163Z,1.00
2023-04-15T12:06:37.371Z,1.05
2023-04-15T12:09:39.940Z,3.78
2023-04-15T12:12:42.240Z,4.72
2023-04-15T12:15:44.775Z,4.28
2023-04-15T12:18:55.983Z,1.88
2023-04-15T12:22:01.044Z,1.08
2023-04-15T12:25:03.129Z,1.58
2023-04-15T12:28:11.407Z,1.15
2023-04-15T12:31:14.610Z,1.17
2023-04-15T12:34:16.890Z,0.70
2023-04-15T12:37:18.888Z,0.65
2023-04-15T12:40:20.723Z,1.27
2023-04-15T12:43:22.317Z,1.20
2023-04-15T12:46:24.019Z,0.90
2023-04-15T12:49:26.760Z,0.82
2023-04-15T12:52:28.347Z,1.15
2023-04-15T12:55:30.620Z,0.93
2023-04-15T12:58:32.626Z,0.43
2023-04-15T13:01:34.314Z,0.73
2023-04-15T13:04:36.128Z,0.52
2023-04-15T13:07:37.766Z,0.73
2023-04-15T13:10:39.589Z,0.60
2023-04-15T13:13:41.497Z,0.50
2023-04-15T13:16:43.216Z,0.40
2023-04-15T13:19:44.806Z,1.05
2023-04-15T13:22:46.498Z,3.45
2023-04-15T13:25:48.167Z,2.13
2023-04-15T13:28:49.847Z,2.20
2023-04-15T13:31:51.493Z,0.77
2023-04-15T13:34:53.238Z,0.80
2023-04-15T13:37:55.726Z,0.22
2023-04-15T13:40:57.322Z,0.63
2023-04-15T13:43:58.948Z,0.80
2023-04-15T13:47:01.030Z,0.38
2023-04-15T13:50:02.709Z,0.32
2023-04-15T13:53:04.295Z,0.20
2023-04-15T13:56:07.559Z,0.52
2023-04-15T13:59:09.375Z,0.40
2023-04-15T14:02:11.167Z,0.82
2023-04-15T14:05:12.806Z,1.35
2023-04-15T14:08:14.594Z,0.70
2023-04-15T14:11:16.180Z,0.80
2023-04-15T14:14:18.036Z,1.42
2023-04-15T14:17:19.714Z,1.48
2023-04-15T14:20:21.317Z,1.90
2023-04-15T14:23:23.550Z,1.90
2023-04-15T14:26:25.471Z,1.55
2023-04-15T14:29:27.725Z,2.13
2023-04-15T14:32:29.347Z,2.58
2023-04-15T14:35:31.410Z,1.83
2023-04-15T14:38:39.765Z,1.40
2023-04-15T14:41:41.378Z,1.90
2023-04-15T14:44:44.781Z,0.82
2023-04-15T14:47:47.229Z,0.93
2023-04-15T14:50:48.917Z,1.10
2023-04-15T14:53:50.606Z,0.90
2023-04-15T14:56:52.225Z,0.85
2023-04-15T14:59:56.711Z,1.70
2023-04-15T15:02:58.991Z,6.28
2023-04-15T15:06:00.688Z,1.73
2023-04-15T15:09:02.434Z,2.08
2023-04-15T15:12:04.219Z,1.75
2023-04-15T15:15:15.486Z,2.20
2023-04-15T15:18:21.641Z,1.02
2023-04-15T15:21:23.864Z,0.95
2023-04-15T15:24:25.645Z,0.60
2023-04-15T15:27:27.255Z,1.58
2023-04-15T15:30:28.878Z,1.55
2023-04-15T15:33:30.604Z,1.02
2023-04-15T15:36:32.193Z,2.13
2023-04-15T15:39:35.362Z,1.20
2023-04-15T15:42:36.949Z,1.55
2023-04-15T15:45:38.762Z,1.88
2023-04-15T15:48:40.525Z,1.73
2023-04-15T15:51:42.114Z,2.30
2023-04-15T15:54:43.782Z,1.50
2023-04-15T15:57:45.591Z,5.43
2023-04-15T16:00:47.456Z,4.60
2023-04-15T16:03:49.268Z,3.15
2023-04-15T16:06:51.034Z,5.35
2023-04-15T16:09:52.774Z,4.43
2023-04-15T16:12:54.853Z,3.13
2023-04-15T16:15:56.487Z,2.72
2023-04-15T16:18:58.227Z,3.17
2023-04-15T16:22:01.443Z,2.58
2023-04-15T16:25:03.652Z,1.85
2023-04-15T16:28:14.692Z,1.88
2023-04-15T16:31:20.648Z,3.53
2023-04-15T16:34:23.544Z,10.40
2023-04-15T16:37:25.115Z,6.38
2023-04-15T16:40:26.894Z,2.85
2023-04-15T16:43:29.066Z,3.15
2023-04-15T16:46:31.171Z,4.07
2023-04-15T16:49:34.895Z,3.80
2023-04-15T16:52:36.574Z,2.85
2023-04-15T16:55:39.379Z,3.88
2023-04-15T16:58:41.020Z,4.30
2023-04-15T17:01:42.761Z,6.97
2023-04-15T17:04:44.341Z,8.77
2023-04-15T17:07:46.087Z,11.77
2023-04-15T17:10:47.723Z,9.05
2023-04-15T17:13:49.476Z,5.57
2023-04-15T17:16:51.060Z,5.65
2023-04-15T17:19:52.721Z,6.82
2023-04-15T17:22:54.327Z,6.38
2023-04-15T17:25:55.953Z,5.95
2023-04-15T17:28:57.665Z,5.07
2023-04-15T17:31:59.925Z,2.90
2023-04-15T17:35:05.610Z,2.70
2023-04-15T17:38:07.170Z,2.70
2023-04-15T17:41:08.805Z,2.90
2023-04-15T17:44:10.404Z,5.70
2023-04-15T17:47:12.018Z,5.13
2023-04-15T17:50:13.617Z,5.75
2023-04-15T17:53:15.301Z,5.40
2023-04-15T17:56:16.903Z,10.07
2023-04-15T17:59:18.685Z,7.90
2023-04-15T18:02:20.612Z,7.40
2023-04-15T18:05:22.389Z,6.40
2023-04-15T18:08:24.028Z,6.70
2023-04-15T18:11:25.615Z,6.53
2023-04-15T18:14:34.254Z,77.60
2023-04-15T18:17:36.617Z,12.77
2023-04-15T18:20:38.207Z,49.65
2023-04-15T18:23:39.803Z,62.15
2023-04-15T18:26:41.521Z,56.13
2023-04-15T18:29:43.685Z,15.50
2023-04-15T18:32:45.493Z,18.88
2023-04-15T18:35:49.354Z,15.68
2023-04-15T18:38:51.532Z,12.80
2023-04-15T18:41:53.575Z,11.70
2023-04-15T18:44:55.327Z,11.27
2023-04-15T18:47:56.957Z,11.80
2023-04-15T18:50:58.765Z,8.45
2023-04-15T18:54:00.332Z,7.00
2023-04-15T18:57:03.926Z,8.73
2023-04-15T19:00:06.119Z,9.10
2023-04-15T19:03:08.060Z,8.85
2023-04-15T19:06:09.717Z,5.75
2023-04-15T19:09:11.434Z,4.13
2023-04-15T19:12:13.013Z,3.72
2023-04-15T19:15:14.591Z,4.60
2023-04-15T19:18:16.447Z,35.28
2023-04-15T19:21:18.049Z,17.48
2023-04-15T19:24:20.333Z,14.75
2023-04-15T19:27:22.019Z,20.58
2023-04-15T19:30:23.603Z,24.45
2023-04-15T19:33:27.392Z,12.00
2023-04-15T19:36:29.598Z,10.65
2023-04-15T19:39:31.262Z,12.13
2023-04-15T19:42:32.834Z,13.63
2023-04-15T19:45:34.522Z,12.93
2023-04-15T19:48:36.851Z,10.90
2023-04-15T19:51:38.400Z,11.27
2023-04-15T19:54:39.969Z,9.70
2023-04-15T19:57:41.810Z,9.18
2023-04-15T20:00:43.441Z,6.97
2023-04-15T20:03:45.195Z,6.40
2023-04-15T20:06:46.928Z,8.45
2023-04-15T20:09:48.476Z,8.60
2023-04-15T20:12:53.170Z,8.40
2023-04-15T20:15:55.133Z,15.50
2023-04-15T20:18:56.806Z,11.50
2023-04-15T20:21:58.358Z,15.73
2023-04-15T20:25:03.990Z,14.73
2023-04-15T20:28:05.661Z,13.82
2023-04-15T20:31:07.368Z,8.82
2023-04-15T20:34:11.838Z,7.15
2023-04-15T20:37:13.740Z,5.93
2023-04-15T20:40:15.310Z,5.28
2023-04-15T20:43:16.915Z,5.05
2023-04-15T20:46:21.558Z,4.50
2023-04-15T20:49:23.441Z,3.78
2023-04-15T20:52:25.002Z,4.20
2023-04-15T20:55:27.543Z,3.92
2023-04-15T20:58:29.895Z,4.47
2023-04-15T21:01:31.578Z,4.72
2023-04-15T21:04:33.200Z,4.88
2023-04-15T21:07:34.755Z,8.45
2023-04-15T21:10:36.739Z,8.60
2023-04-15T21:13:38.373Z,9.73
2023-04-15T21:16:40.097Z,10.10
2023-04-15T21:19:42.627Z,9.30
2023-04-15T21:22:44.703Z,8.98
2023-04-15T21:25:46.292Z,6.28
2023-04-15T21:28:47.899Z,8.10
2023-04-15T21:31:49.718Z,13.48
2023-04-15T21:34:51.299Z,9.85
2023-04-15T21:37:52.826Z,11.43
2023-04-15T21:40:55.227Z,13.13
2023-04-15T21:43:57.254Z,10.25
2023-04-15T21:46:58.821Z,11.95
2023-04-15T21:50:00.505Z,9.32
2023-04-15T21:53:02.211Z,8.75
2023-04-15T21:56:04.005Z,9.02
2023-04-15T21:59:05.836Z,9.35
2023-04-15T22:02:07.654Z,13.13
2023-04-15T22:05:09.321Z,14.55
2023-04-15T22:08:10.870Z,15.07
2023-04-15T22:11:26.457Z,15.48
2023-04-15T22:14:29.999Z,12.45
2023-04-15T22:17:31.751Z,12.07
2023-04-15T22:20:33.469Z,10.57
2023-04-15T22:23:35.108Z,12.55
2023-04-15T22:26:36.654Z,13.90
2023-04-15T22:29:38.257Z,12.75
2023-04-15T22:32:40.130Z,12.10
2023-04-15T22:35:41.743Z,14.27
2023-04-15T22:38:43.604Z,13.70
2023-04-15T22:41:46.517Z,14.32
2023-04-15T22:44:48.539Z,12.30
2023-04-15T22:47:50.164Z,13.70
2023-04-15T22:50:51.963Z,15.38
2023-04-15T22:53:54.547Z,14.98
2023-04-15T22:56:56.635Z,15.77
2023-04-15T22:59:58.222Z,14.82
2023-04-15T23:03:00.002Z,15.60
2023-04-15T23:06:01.928Z,15.77
2023-04-15T23:09:03.717Z,13.57
2023-04-15T23:12:06.221Z,12.00
2023-04-15T23:15:08.433Z,13.02
2023-04-15T23:18:10.097Z,13.05
2023-04-15T23:21:11.806Z,12.73
2023-04-15T23:24:13.429Z,10.90
2023-04-15T23:27:15.030Z,11.13
2023-04-15T23:30:16.728Z,13.38
2023-04-15T23:33:18.379Z,11.65
2023-04-15T23:36:19.933Z,10.45
2023-04-15T23:39:21.481Z,11.70
2023-04-15T23:42:24.189Z,11.48
2023-04-15T23:45:25.764Z,11.00
2023-04-15T23:48:27.384Z,11.65
2023-04-15T23:51:28.932Z,12.23
2023-04-15T23:54:30.658Z,12.25
2023-04-15T23:57:32.290Z,11.13
